createdAt,value
2023-02-03T00:01:34.091Z,19.15
2023-02-03T00:03:57.337Z,19.80
2023-02-03T00:06:20.762Z,18.90
2023-02-03T00:08:44.057Z,20.27
2023-02-03T00:11:09.145Z,21.35
2023-02-03T00:13:32.582Z,17.15
2023-02-03T00:15:56.024Z,22.80
2023-02-03T00:18:19.304Z,17.45
2023-02-03T00:20:42.601Z,24.85
2023-02-03T00:23:06.797Z,23.10
2023-02-03T00:25:30.206Z,16.80
2023-02-03T00:27:54.815Z,17.85
2023-02-03T00:30:18.784Z,20.50
2023-02-03T00:32:42.174Z,21.60
2023-02-03T00:35:06.064Z,21.95
2023-02-03T00:37:29.443Z,19.02
2023-02-03T00:39:52.983Z,21.48
2023-02-03T00:42:16.790Z,22.02
2023-02-03T00:44:41.953Z,22.27
2023-02-03T00:47:05.376Z,18.70
2023-02-03T00:49:28.630Z,18.83
2023-02-03T00:51:52.596Z,17.80
2023-02-03T00:54:17.753Z,15.02
2023-02-03T00:56:41.439Z,19.60
2023-02-03T00:59:04.952Z,17.88
2023-02-03T01:01:29.779Z,17.48
2023-02-03T01:03:55.580Z,20.77
2023-02-03T01:06:21.597Z,13.98
2023-02-03T01:08:45.676Z,18.33
2023-02-03T01:11:09.852Z,14.20
2023-02-03T01:13:33.127Z,13.07
2023-02-03T01:15:56.485Z,22.20
2023-02-03T01:18:21.140Z,15.23
2023-02-03T01:20:44.414Z,15.88
2023-02-03T01:23:07.688Z,17.48
2023-02-03T01:25:30.997Z,16.70
2023-02-03T01:27:54.294Z,17.45
2023-02-03T01:30:18.492Z,15.68
2023-02-03T01:32:41.722Z,17.80
2023-02-03T01:35:07.025Z,14.43
2023-02-03T01:37:30.384Z,13.40
2023-02-03T01:39:53.673Z,17.17
2023-02-03T01:42:17.925Z,14.38
2023-02-03T01:44:47.673Z,17.15
2023-02-03T01:47:18.881Z,14.18
2023-02-03T01:49:46.396Z,16.92
2023-02-03T01:52:11.307Z,18.17
2023-02-03T01:54:40.327Z,17.08
2023-02-03T01:57:12.689Z,16.33
2023-02-03T01:59:37.297Z,19.52
2023-02-03T02:02:01.578Z,13.00
2023-02-03T02:04:33.767Z,16.30
2023-02-03T02:06:58.796Z,15.75
2023-02-03T02:09:24.099Z,17.98
2023-02-03T02:11:47.430Z,16.67
2023-02-03T02:14:10.843Z,15.65
2023-02-03T02:16:47.709Z,16.23
2023-02-03T02:19:45.967Z,13.23
2023-02-03T02:22:15.867Z,15.30
2023-02-03T02:25:11.916Z,11.40
2023-02-03T02:28:19.593Z,18.25
2023-02-03T02:31:08.242Z,12.73
2023-02-03T02:33:42.638Z,13.48
2023-02-03T02:36:19.497Z,17.40
2023-02-03T02:38:52.181Z,10.75
2023-02-03T02:41:21.714Z,16.63
2023-02-03T02:43:52.819Z,10.20
2023-02-03T02:46:21.369Z,15.80
2023-02-03T02:48:53.132Z,10.77
2023-02-03T02:51:17.960Z,16.58
2023-02-03T02:53:47.008Z,11.02
2023-02-03T02:56:15.600Z,11.25
2023-02-03T02:58:42.452Z,13.85
2023-02-03T03:01:08.370Z,9.95
2023-02-03T03:03:34.572Z,15.77
2023-02-03T03:06:03.961Z,14.98
2023-02-03T03:08:37.835Z,11.32
2023-02-03T03:11:03.510Z,10.80
2023-02-03T03:13:33.563Z,10.63
2023-02-03T03:16:01.093Z,9.27
2023-02-03T03:18:30.411Z,15.07
2023-02-03T03:20:57.353Z,15.30
2023-02-03T03:23:27.102Z,14.15
2023-02-03T03:25:56.445Z,15.45
2023-02-03T03:28:27.113Z,15.20
2023-02-03T03:30:50.669Z,14.52
2023-02-03T03:33:14.237Z,13.55
2023-02-03T03:35:49.423Z,10.65
2023-02-03T03:38:19.353Z,11.40
2023-02-03T03:40:50.841Z,14.98
2023-02-03T03:43:20.405Z,12.50
2023-02-03T03:45:50.380Z,12.40
2023-02-03T03:48:18.892Z,11.65
2023-02-03T03:50:46.419Z,12.02
2023-02-03T03:53:11.784Z,10.98
2023-02-03T03:55:37.641Z,13.85
2023-02-03T03:58:07.027Z,16.27
2023-02-03T04:00:33.910Z,11.82
2023-02-03T04:02:59.688Z,13.63
2023-02-03T04:05:23.440Z,13.95
2023-02-03T04:07:49.331Z,11.95
2023-02-03T04:10:24.634Z,13.07
2023-02-03T04:12:47.959Z,10.55
2023-02-03T04:15:12.682Z,11.75
2023-02-03T04:17:36.502Z,11.98
2023-02-03T04:19:59.764Z,8.75
2023-02-03T04:22:23.007Z,11.75
2023-02-03T04:24:46.306Z,8.43
2023-02-03T04:27:09.604Z,16.60
2023-02-03T04:29:33.018Z,10.05
2023-02-03T04:31:57.915Z,11.27
2023-02-03T04:34:21.251Z,12.07
2023-02-03T04:36:44.525Z,11.30
2023-02-03T04:39:08.171Z,6.65
2023-02-03T04:41:31.421Z,11.93
2023-02-03T04:43:54.766Z,12.93
2023-02-03T04:46:18.960Z,13.02
2023-02-03T04:48:43.641Z,10.23
2023-02-03T04:51:09.561Z,11.35
2023-02-03T04:53:33.283Z,11.32
2023-02-03T04:55:56.569Z,13.63
2023-02-03T04:58:19.950Z,8.77
2023-02-03T05:00:43.316Z,12.85
2023-02-03T05:03:06.732Z,9.90
2023-02-03T05:05:31.591Z,8.23
2023-02-03T05:07:54.849Z,10.18
2023-02-03T05:10:18.591Z,10.15
2023-02-03T05:12:41.908Z,10.13
2023-02-03T05:15:05.927Z,8.85
2023-02-03T05:17:29.282Z,10.73
2023-02-03T05:19:52.571Z,9.15
2023-02-03T05:22:17.204Z,9.10
2023-02-03T05:24:40.498Z,14.57
2023-02-03T05:27:03.822Z,9.32
2023-02-03T05:29:27.527Z,10.45
2023-02-03T05:31:50.938Z,9.82
2023-02-03T05:34:14.344Z,11.48
2023-02-03T05:36:37.574Z,9.43
2023-02-03T05:39:02.135Z,8.55
2023-02-03T05:41:42.699Z,7.72
2023-02-03T05:44:06.234Z,7.93
2023-02-03T05:46:29.955Z,11.90
2023-02-03T05:48:53.267Z,11.82
2023-02-03T05:51:16.706Z,9.38
2023-02-03T05:53:40.205Z,9.60
2023-02-03T05:56:05.504Z,11.23
2023-02-03T05:58:28.740Z,9.15
2023-02-03T06:00:53.097Z,12.68
2023-02-03T06:03:16.675Z,9.50
2023-02-03T06:05:41.417Z,9.35
2023-02-03T06:08:05.223Z,12.23
2023-02-03T06:10:29.561Z,8.40
2023-02-03T06:12:54.867Z,9.18
2023-02-03T06:15:18.570Z,10.82
2023-02-03T06:17:45.498Z,7.43
2023-02-03T06:20:12.231Z,10.13
2023-02-03T06:22:36.272Z,7.22
2023-02-03T06:24:59.632Z,4.80
2023-02-03T06:27:22.883Z,8.45
2023-02-03T06:29:47.545Z,9.57
2023-02-03T06:32:10.949Z,9.80
2023-02-03T06:34:34.612Z,7.18
2023-02-03T06:36:57.987Z,9.02
2023-02-03T06:39:21.717Z,9.38
2023-02-03T06:41:45.035Z,10.75
2023-02-03T06:44:08.980Z,9.85
2023-02-03T06:46:34.034Z,9.75
2023-02-03T06:48:57.854Z,7.63
2023-02-03T06:51:21.237Z,6.93
2023-02-03T06:53:44.595Z,12.68
2023-02-03T06:56:08.122Z,8.85
2023-02-03T06:58:31.476Z,8.38
2023-02-03T07:00:57.127Z,11.48
2023-02-03T07:03:21.738Z,7.43
2023-02-03T07:05:45.174Z,10.25
2023-02-03T07:08:08.474Z,8.23
2023-02-03T07:10:32.033Z,7.90
2023-02-03T07:12:55.696Z,10.07
2023-02-03T07:15:19.886Z,9.25
2023-02-03T07:17:43.086Z,11.73
2023-02-03T07:20:08.971Z,9.57
2023-02-03T07:22:32.602Z,8.63
2023-02-03T07:24:55.951Z,9.88
2023-02-03T07:27:20.303Z,7.68
2023-02-03T07:29:43.721Z,10.32
2023-02-03T07:32:07.138Z,8.95
2023-02-03T07:34:30.864Z,11.52
2023-02-03T07:36:55.923Z,7.20
2023-02-03T07:39:19.404Z,7.65
2023-02-03T07:41:42.720Z,9.10
2023-02-03T07:44:06.831Z,9.23
2023-02-03T07:46:30.302Z,16.88
2023-02-03T07:48:53.886Z,5.40
2023-02-03T07:51:17.340Z,6.50
2023-02-03T07:53:42.154Z,6.30
2023-02-03T07:56:06.906Z,4.57
2023-02-03T07:58:30.789Z,9.57
2023-02-03T08:00:54.153Z,10.52
2023-02-03T08:03:17.528Z,6.97
2023-02-03T08:05:40.902Z,9.75
2023-02-03T08:08:04.332Z,7.97
2023-02-03T08:10:29.933Z,7.03
2023-02-03T08:12:54.897Z,9.45
2023-02-03T08:15:18.341Z,10.63
2023-02-03T08:17:42.134Z,9.60
2023-02-03T08:20:07.178Z,8.00
2023-02-03T08:22:30.411Z,8.65
2023-02-03T08:24:53.672Z,10.32
2023-02-03T08:27:21.825Z,10.00
2023-02-03T08:29:46.032Z,7.38
2023-02-03T08:32:11.318Z,9.82
2023-02-03T08:34:34.652Z,11.88
2023-02-03T08:36:57.980Z,5.40
2023-02-03T08:39:21.341Z,6.00
2023-02-03T08:41:44.657Z,12.35
2023-02-03T08:44:09.306Z,9.25
2023-02-03T08:46:33.194Z,9.25
2023-02-03T08:48:57.553Z,10.18
2023-02-03T08:51:20.815Z,7.80
2023-02-03T08:53:44.629Z,11.75
2023-02-03T08:56:08.636Z,7.97
2023-02-03T08:58:31.931Z,7.78
2023-02-03T09:00:56.576Z,7.70
2023-02-03T09:03:20.012Z,11.00
2023-02-03T09:05:43.371Z,9.25
2023-02-03T09:08:07.147Z,6.47
2023-02-03T09:10:30.842Z,11.02
2023-02-03T09:12:54.339Z,14.32
2023-02-03T09:15:17.946Z,14.05
2023-02-03T09:17:43.106Z,11.35
2023-02-03T09:20:08.006Z,13.55
2023-02-03T09:22:31.506Z,13.07
2023-02-03T09:24:54.992Z,9.05
2023-02-03T09:27:18.307Z,8.73
2023-02-03T09:29:41.699Z,13.20
2023-02-03T09:32:08.827Z,10.40
2023-02-03T09:34:33.701Z,13.65
2023-02-03T09:36:56.987Z,11.38
2023-02-03T09:39:20.482Z,9.23
2023-02-03T09:42:16.788Z,12.57
2023-02-03T09:44:49.122Z,10.57
2023-02-03T09:47:17.097Z,9.88
2023-02-03T09:49:47.180Z,15.68
2023-02-03T09:52:15.874Z,12.48
2023-02-03T09:54:44.689Z,11.52
2023-02-03T09:57:17.654Z,13.77
2023-02-03T09:59:41.298Z,10.55
2023-02-03T10:02:22.921Z,12.43
2023-02-03T10:04:59.308Z,9.90
2023-02-03T10:07:35.087Z,15.85
2023-02-03T10:10:05.901Z,12.95
2023-02-03T10:13:04.598Z,15.65
2023-02-03T10:16:04.330Z,11.32
2023-02-03T10:18:33.664Z,11.10
2023-02-03T10:21:03.351Z,10.82
2023-02-03T10:23:34.576Z,11.48
2023-02-03T10:26:00.795Z,12.88
2023-02-03T10:28:28.675Z,11.35
2023-02-03T10:30:57.578Z,10.88
2023-02-03T10:33:22.125Z,12.02
2023-02-03T10:35:52.571Z,11.82
2023-02-03T10:38:28.440Z,13.18
2023-02-03T10:40:51.896Z,12.77
2023-02-03T10:43:32.468Z,12.98
2023-02-03T10:45:55.929Z,12.65
2023-02-03T10:48:19.914Z,11.60
2023-02-03T10:50:47.952Z,13.73
2023-02-03T10:53:34.367Z,14.32
2023-02-03T10:56:08.639Z,10.20
2023-02-03T10:58:34.722Z,11.63
2023-02-03T11:01:06.081Z,13.93
2023-02-03T11:03:31.592Z,11.30
2023-02-03T11:06:11.597Z,6.03
2023-02-03T11:08:37.934Z,10.68
2023-02-03T11:11:05.008Z,7.22
2023-02-03T11:13:28.471Z,11.02
2023-02-03T11:15:58.129Z,11.75
2023-02-03T11:18:43.464Z,9.05
2023-02-03T11:21:16.779Z,13.00
2023-02-03T11:23:55.656Z,13.07
2023-02-03T11:26:23.251Z,10.05
2023-02-03T11:28:50.064Z,12.60
2023-02-03T11:31:22.031Z,11.25
2023-02-03T11:33:49.841Z,10.38
2023-02-03T11:36:14.075Z,10.15
2023-02-03T11:38:37.559Z,6.93
2023-02-03T11:41:03.501Z,9.02
2023-02-03T11:43:26.849Z,9.10
2023-02-03T11:45:54.603Z,8.18
2023-02-03T11:48:31.148Z,7.25
2023-02-03T11:51:05.978Z,7.00
2023-02-03T11:53:56.179Z,9.32
2023-02-03T11:56:35.839Z,9.35
2023-02-03T11:59:19.414Z,8.45
2023-02-03T12:02:01.949Z,13.23
2023-02-03T12:05:07.887Z,12.02
2023-02-03T12:07:54.663Z,10.70
2023-02-03T12:10:39.023Z,9.70
2023-02-03T12:13:18.072Z,9.35
2023-02-03T12:16:00.711Z,10.07
2023-02-03T12:18:42.392Z,8.98
2023-02-03T12:21:30.316Z,10.63
2023-02-03T12:24:02.874Z,10.43
2023-02-03T12:26:31.204Z,10.82
2023-02-03T12:29:04.197Z,13.20
2023-02-03T12:31:36.650Z,10.93
2023-02-03T12:34:15.032Z,9.52
2023-02-03T12:36:42.474Z,7.93
2023-02-03T12:39:15.120Z,10.80
2023-02-03T12:41:43.188Z,10.23
2023-02-03T12:44:17.816Z,9.38
2023-02-03T12:46:46.212Z,8.93
2023-02-03T12:49:21.043Z,14.40
2023-02-03T12:51:51.472Z,11.85
2023-02-03T12:54:32.032Z,12.95
2023-02-03T12:57:02.178Z,13.70
2023-02-03T12:59:30.857Z,12.98
2023-02-03T13:01:59.614Z,9.30
2023-02-03T13:04:30.685Z,11.07
2023-02-03T13:07:00.009Z,11.10
2023-02-03T13:09:33.036Z,15.60
2023-02-03T13:12:05.529Z,12.73
2023-02-03T13:14:37.241Z,10.95
2023-02-03T13:17:08.303Z,8.52
2023-02-03T13:19:42.454Z,7.82
2023-02-03T13:22:12.445Z,10.88
2023-02-03T13:24:35.887Z,10.38
2023-02-03T13:27:30.050Z,10.50
2023-02-03T13:30:17.969Z,12.82
2023-02-03T13:33:02.812Z,10.82
2023-02-03T13:35:52.146Z,7.03
2023-02-03T13:38:57.281Z,12.45
2023-02-03T13:41:28.560Z,10.30
2023-02-03T13:43:54.943Z,18.25
2023-02-03T13:46:26.554Z,10.38
2023-02-03T13:48:50.665Z,10.48
2023-02-03T13:51:17.968Z,12.80
2023-02-03T13:53:44.892Z,13.52
2023-02-03T13:56:10.376Z,11.60
2023-02-03T13:58:36.733Z,9.27
2023-02-03T14:01:38.433Z,12.45
2023-02-03T14:04:03.085Z,9.02
2023-02-03T14:07:04.173Z,12.45
2023-02-03T14:10:17.897Z,7.53
2023-02-03T14:12:59.169Z,12.70
2023-02-03T14:15:34.199Z,9.20
2023-02-03T14:18:21.830Z,13.52
2023-02-03T14:21:15.031Z,10.00
2023-02-03T14:23:51.742Z,8.75
2023-02-03T14:26:25.987Z,12.23
2023-02-03T14:28:52.757Z,9.60
2023-02-03T14:31:21.136Z,13.82
2023-02-03T14:33:59.452Z,15.13
2023-02-03T14:36:35.033Z,11.23
2023-02-03T14:39:02.322Z,8.60
2023-02-03T14:41:36.029Z,9.35
2023-02-03T14:44:10.434Z,11.48
2023-02-03T14:47:08.805Z,10.70
2023-02-03T14:49:53.624Z,12.52
2023-02-03T14:52:53.579Z,11.40
2023-02-03T14:55:36.686Z,10.02
2023-02-03T14:58:03.635Z,9.35
2023-02-03T15:00:34.225Z,9.07
2023-02-03T15:03:30.230Z,9.40
2023-02-03T15:05:59.438Z,7.75
2023-02-03T15:08:36.523Z,10.25
2023-02-03T15:11:00.175Z,11.95
2023-02-03T15:13:28.265Z,12.93
2023-02-03T15:15:54.712Z,14.63
2023-02-03T15:18:24.373Z,12.73
2023-02-03T15:20:49.551Z,14.38
2023-02-03T15:23:23.373Z,15.77
2023-02-03T15:25:46.827Z,26.25
2023-02-03T15:28:16.957Z,18.90
2023-02-03T15:30:41.647Z,20.17
2023-02-03T15:33:09.061Z,20.50
2023-02-03T15:35:35.475Z,22.23
2023-02-03T15:38:04.256Z,18.25
2023-02-03T15:40:39.343Z,17.45
2023-02-03T15:43:09.242Z,25.13
2023-02-03T15:45:35.839Z,21.77
2023-02-03T15:48:03.394Z,17.27
2023-02-03T15:50:32.250Z,22.60
2023-02-03T15:53:01.636Z,19.95
2023-02-03T15:55:34.035Z,24.73
2023-02-03T15:57:57.623Z,22.10
2023-02-03T16:00:33.267Z,17.42
2023-02-03T16:02:59.667Z,25.17
2023-02-03T16:05:27.416Z,18.23
2023-02-03T16:07:51.225Z,19.20
2023-02-03T16:10:32.049Z,21.35
2023-02-03T16:12:55.899Z,16.02
2023-02-03T16:15:24.829Z,22.90
2023-02-03T16:17:48.125Z,19.42
2023-02-03T16:20:29.215Z,24.33
2023-02-03T16:23:19.664Z,21.75
2023-02-03T16:25:44.529Z,15.25
2023-02-03T16:28:35.317Z,13.85
2023-02-03T16:31:20.178Z,20.65
2023-02-03T16:34:05.068Z,14.85
2023-02-03T16:36:45.794Z,16.23
2023-02-03T16:39:31.370Z,18.00
2023-02-03T16:42:14.068Z,22.73
2023-02-03T16:44:54.790Z,18.10
2023-02-03T16:47:43.917Z,18.05
2023-02-03T16:50:37.464Z,16.50
2023-02-03T16:53:01.792Z,15.10
2023-02-03T16:55:25.127Z,16.23
2023-02-03T16:57:51.349Z,25.05
2023-02-03T17:00:17.570Z,23.48
2023-02-03T17:02:40.923Z,15.68
2023-02-03T17:05:04.232Z,18.73
2023-02-03T17:07:27.587Z,14.88
2023-02-03T17:09:51.447Z,19.83
2023-02-03T17:12:15.615Z,25.73
2023-02-03T17:14:40.336Z,21.05
2023-02-03T17:17:03.653Z,20.15
2023-02-03T17:19:26.952Z,19.55
2023-02-03T17:21:51.427Z,17.30
2023-02-03T17:24:14.983Z,18.23
2023-02-03T17:26:38.400Z,17.80
2023-02-03T17:29:03.500Z,19.77
2023-02-03T17:31:28.348Z,32.40
2023-02-03T17:33:53.102Z,22.98
2023-02-03T17:36:19.562Z,19.60
2023-02-03T17:54:55.458Z,20.15
2023-02-03T17:57:18.732Z,20.98
2023-02-03T17:59:42.050Z,24.13
2023-02-03T18:02:07.177Z,19.83
2023-02-03T18:04:30.899Z,23.88
2023-02-03T18:06:54.533Z,17.27
2023-02-03T18:09:18.239Z,20.30
2023-02-03T18:11:41.788Z,21.67
2023-02-03T18:14:06.589Z,18.17
2023-02-03T18:16:33.493Z,20.77
2023-02-03T18:18:58.337Z,22.85
2023-02-03T18:21:26.392Z,15.82
2023-02-03T18:23:51.265Z,20.27
2023-02-03T18:26:15.209Z,24.42
2023-02-03T18:28:39.501Z,16.75
2023-02-03T18:31:07.767Z,20.58
2023-02-03T18:33:31.315Z,19.60
2023-02-03T18:35:57.685Z,20.88
2023-02-03T18:38:21.083Z,19.42
2023-02-03T18:40:44.546Z,18.42
2023-02-03T18:43:08.143Z,23.02
2023-02-03T18:45:34.378Z,26.17
2023-02-03T18:47:57.796Z,23.20
2023-02-03T18:50:21.394Z,25.27
2023-02-03T18:52:46.224Z,31.85
2023-02-03T18:55:10.220Z,23.77
2023-02-03T18:57:33.513Z,19.30
2023-02-03T18:59:57.030Z,26.10
2023-02-03T19:02:21.617Z,25.08
2023-02-03T19:04:44.910Z,24.65
2023-02-03T19:07:08.271Z,25.85
2023-02-03T19:09:34.040Z,25.63
2023-02-03T19:11:58.762Z,21.33
2023-02-03T19:14:23.482Z,24.05
2023-02-03T19:16:50.304Z,19.65
2023-02-03T19:19:15.029Z,23.92
2023-02-03T19:21:38.289Z,23.42
2023-02-03T19:24:01.836Z,32.63
2023-02-03T19:26:27.770Z,22.08
2023-02-03T19:28:52.531Z,18.42
2023-02-03T19:31:16.742Z,22.83
2023-02-03T19:33:40.457Z,21.63
2023-02-03T19:36:04.033Z,23.55
2023-02-03T19:38:27.516Z,24.08
2023-02-03T19:40:51.389Z,19.33
2023-02-03T19:43:16.248Z,24.38
2023-02-03T19:45:39.556Z,17.60
2023-02-03T19:48:02.820Z,23.08
2023-02-03T19:50:26.181Z,23.63
2023-02-03T19:52:49.516Z,29.83
2023-02-03T19:55:16.071Z,20.63
2023-02-03T19:57:40.204Z,22.08
2023-02-03T20:00:05.560Z,24.92
2023-02-03T20:02:36.815Z,26.20
2023-02-03T20:05:00.208Z,24.65
2023-02-03T20:07:24.994Z,27.00
2023-02-03T20:09:48.747Z,27.73
2023-02-03T20:12:13.062Z,18.13
2023-02-03T20:14:36.495Z,22.63
2023-02-03T20:17:03.286Z,24.48
2023-02-03T20:19:26.741Z,24.27
2023-02-03T20:21:50.047Z,25.98
2023-02-03T20:24:17.819Z,32.10
2023-02-03T20:26:41.558Z,29.38
2023-02-03T20:29:04.987Z,23.38
2023-02-03T20:31:28.461Z,15.35
2023-02-03T20:33:53.332Z,29.35
2023-02-03T20:36:16.628Z,19.88
2023-02-03T20:38:40.036Z,25.42
2023-02-03T20:41:03.377Z,22.42
2023-02-03T20:43:28.955Z,19.63
2023-02-03T20:45:53.087Z,20.95
2023-02-03T20:48:18.094Z,18.88
2023-02-03T20:50:46.716Z,27.70
2023-02-03T20:53:15.074Z,22.95
2023-02-03T20:55:38.620Z,24.52
2023-02-03T20:58:02.864Z,25.35
2023-02-03T21:00:28.872Z,17.58
2023-02-03T21:03:10.604Z,18.35
2023-02-03T21:05:38.230Z,20.90
2023-02-03T21:08:03.356Z,19.50
2023-02-03T21:10:27.093Z,17.98
2023-02-03T21:12:50.743Z,20.38
2023-02-03T21:15:20.916Z,19.02
2023-02-03T21:17:44.267Z,34.83
2023-02-03T21:20:25.693Z,21.60
2023-02-03T21:22:49.086Z,24.17
2023-02-03T21:25:28.297Z,27.65
2023-02-03T21:27:53.023Z,27.92
2023-02-03T21:30:30.820Z,27.13
2023-02-03T21:32:54.298Z,22.05
2023-02-03T21:35:24.947Z,21.20
2023-02-03T21:37:48.239Z,24.30
2023-02-03T21:40:24.022Z,27.00
2023-02-03T21:42:48.073Z,19.63
2023-02-03T21:45:28.416Z,23.50
2023-02-03T21:47:53.722Z,24.52
2023-02-03T21:50:30.397Z,26.48
2023-02-03T21:52:54.080Z,28.27
2023-02-03T21:55:19.156Z,21.90
2023-02-03T21:57:42.516Z,23.58
2023-02-03T22:00:42.988Z,29.45
2023-02-03T22:03:08.417Z,21.80
2023-02-03T22:05:31.733Z,28.15
2023-02-03T22:07:55.533Z,20.25
2023-02-03T22:10:20.340Z,25.55
2023-02-03T22:12:43.675Z,27.73
2023-02-03T22:15:08.040Z,30.55
2023-02-03T22:17:31.303Z,25.67
2023-02-03T22:19:54.534Z,29.00
2023-02-03T22:22:17.816Z,25.42
2023-02-03T22:24:41.051Z,21.98
2023-02-03T22:27:06.382Z,21.80
2023-02-03T22:29:29.641Z,27.65
2023-02-03T22:31:53.042Z,23.70
2023-02-03T22:34:16.510Z,28.23
2023-02-03T22:36:39.807Z,31.88
2023-02-03T22:39:03.290Z,23.20
2023-02-03T22:41:26.597Z,23.83
2023-02-03T22:43:51.392Z,25.83
2023-02-03T22:46:14.720Z,29.42
2023-02-03T22:48:38.120Z,22.08
2023-02-03T22:51:01.451Z,28.67
2023-02-03T22:53:24.786Z,26.52
2023-02-03T22:55:48.107Z,27.60
2023-02-03T22:58:11.641Z,27.98
2023-02-03T23:00:36.652Z,22.00
2023-02-03T23:03:00.336Z,23.85
2023-02-03T23:05:24.254Z,30.88
2023-02-03T23:07:48.535Z,24.63
2023-02-03T23:10:16.058Z,22.73
2023-02-03T23:12:40.577Z,29.75
2023-02-03T23:15:04.133Z,26.10
2023-02-03T23:17:28.896Z,27.10
2023-02-03T23:19:52.210Z,20.40
2023-02-03T23:22:15.973Z,23.77
2023-02-03T23:24:39.278Z,25.55
2023-02-03T23:27:02.584Z,29.35
2023-02-03T23:29:25.839Z,26.40
2023-02-03T23:31:49.137Z,24.33
2023-02-03T23:34:31.461Z,33.28
2023-02-03T23:36:54.709Z,25.15
2023-02-03T23:39:17.890Z,27.25
2023-02-03T23:41:41.159Z,24.08
2023-02-03T23:44:04.427Z,29.63
2023-02-03T23:46:28.466Z,30.40
2023-02-03T23:48:51.697Z,28.13
2023-02-03T23:51:16.381Z,27.10
2023-02-03T23:53:39.655Z,23.17
2023-02-03T23:56:02.906Z,27.58
2023-02-03T23:58:26.646Z,26.77
